sensor_id;sensor_type;location;lat;lon;timestamp;temperature;humidity
2571;DHT22;1295;51.130;6.732;2024-03-17T00:00:41;10.70;99.90
2571;DHT22;1295;51.130;6.732;2024-03-17T00:03:07;10.70;99.90
2571;DHT22;1295;51.130;6.732;2024-03-17T00:05:35;10.70;99.90
2571;DHT22;1295;51.130;6.732;2024-03-17T00:08:01;10.60;99.90
2571;DHT22;1295;51.130;6.732;2024-03-17T00:10:26;10.70;99.90
2571;DHT22;1295;51.130;6.732;2024-03-17T00:12:53;10.60;99.90
2571;DHT22;1295;51.130;6.732;2024-03-17T00:15:19;10.60;99.90
2571;DHT22;1295;51.130;6.732;2024-03-17T00:17:45;10.60;99.90
2571;DHT22;1295;51.130;6.732;2024-03-17T00:20:10;10.60;99.90
2571;DHT22;1295;51.130;6.732;2024-03-17T00:22:36;10.60;99.90
2571;DHT22;1295;51.130;6.732;2024-03-17T00:25:04;10.60;99.90
2571;DHT22;1295;51.130;6.732;2024-03-17T00:27:29;10.60;99.90
2571;DHT22;1295;51.130;6.732;2024-03-17T00:29:55;10.50;99.90
2571;DHT22;1295;51.130;6.732;2024-03-17T00:32:21;10.50;99.90
2571;DHT22;1295;51.130;6.732;2024-03-17T00:34:47;10.50;99.90
2571;DHT22;1295;51.130;6.732;2024-03-17T00:37:13;10.50;99.90
2571;DHT22;1295;51.130;6.732;2024-03-17T00:39:38;10.50;99.90
2571;DHT22;1295;51.130;6.732;2024-03-17T00:42:04;10.50;99.90
2571;DHT22;1295;51.130;6.732;2024-03-17T00:44:30;10.50;99.90
2571;DHT22;1295;51.130;6.732;2024-03-17T00:46:56;10.50;99.90
2571;DHT22;1295;51.130;6.732;2024-03-17T00:49:22;10.50;99.90
2571;DHT22;1295;51.130;6.732;2024-03-17T00:51:48;10.50;99.90
2571;DHT22;1295;51.130;6.732;2024-03-17T00:54:13;10.50;99.90
2571;DHT22;1295;51.130;6.732;2024-03-17T00:56:39;10.50;99.90
2571;DHT22;1295;51.130;6.732;2024-03-17T00:59:06;10.50;99.90
2571;DHT22;1295;51.130;6.732;2024-03-17T01:01:31;10.40;99.90
2571;DHT22;1295;51.130;6.732;2024-03-17T01:03:57;10.40;99.90
2571;DHT22;1295;51.130;6.732;2024-03-17T01:06:22;10.40;99.90
2571;DHT22;1295;51.130;6.732;2024-03-17T01:08:48;10.40;99.90
2571;DHT22;1295;51.130;6.732;2024-03-17T01:11:14;10.40;99.90
2571;DHT22;1295;51.130;6.732;2024-03-17T01:13:39;10.40;99.90
2571;DHT22;1295;51.130;6.732;2024-03-17T01:16:05;10.40;99.90
2571;DHT22;1295;51.130;6.732;2024-03-17T01:18:31;10.40;99.90
2571;DHT22;1295;51.130;6.732;2024-03-17T01:20:56;10.40;99.90
2571;DHT22;1295;51.130;6.732;2024-03-17T01:23:22;10.40;99.90
2571;DHT22;1295;51.130;6.732;2024-03-17T01:25:48;10.40;99.90
2571;DHT22;1295;51.130;6.732;2024-03-17T01:28:13;10.30;99.90
2571;DHT22;1295;51.130;6.732;2024-03-17T01:30:40;10.40;99.90
2571;DHT22;1295;51.130;6.732;2024-03-17T01:33:05;10.30;99.90
2571;DHT22;1295;51.130;6.732;2024-03-17T01:35:31;10.30;99.90
2571;DHT22;1295;51.130;6.732;2024-03-17T01:37:56;10.30;99.90
2571;DHT22;1295;51.130;6.732;2024-03-17T01:40:22;10.30;99.90
2571;DHT22;1295;51.130;6.732;2024-03-17T01:42:48;10.30;99.90
2571;DHT22;1295;51.130;6.732;2024-03-17T01:45:27;10.30;99.90
2571;DHT22;1295;51.130;6.732;2024-03-17T01:47:52;10.30;99.90
2571;DHT22;1295;51.130;6.732;2024-03-17T01:50:17;10.30;99.90
2571;DHT22;1295;51.130;6.732;2024-03-17T01:52:43;10.30;99.90
2571;DHT22;1295;51.130;6.732;2024-03-17T01:55:09;10.30;99.90
2571;DHT22;1295;51.130;6.732;2024-03-17T01:57:34;10.30;99.90
2571;DHT22;1295;51.130;6.732;2024-03-17T02:00:01;10.30;99.90
2571;DHT22;1295;51.130;6.732;2024-03-17T02:02:26;10.20;99.90
2571;DHT22;1295;51.130;6.732;2024-03-17T02:04:52;10.20;99.90
2571;DHT22;1295;51.130;6.732;2024-03-17T02:07:18;10.20;99.90
2571;DHT22;1295;51.130;6.732;2024-03-17T02:09:44;10.20;99.90
2571;DHT22;1295;51.130;6.732;2024-03-17T02:12:10;10.20;99.90
2571;DHT22;1295;51.130;6.732;2024-03-17T02:14:37;10.20;99.90
2571;DHT22;1295;51.130;6.732;2024-03-17T02:17:03;10.20;99.90
2571;DHT22;1295;51.130;6.732;2024-03-17T02:19:28;10.20;99.90
2571;DHT22;1295;51.130;6.732;2024-03-17T02:21:54;10.20;99.90
2571;DHT22;1295;51.130;6.732;2024-03-17T02:24:20;10.20;99.90
2571;DHT22;1295;51.130;6.732;2024-03-17T02:26:45;10.20;99.90
2571;DHT22;1295;51.130;6.732;2024-03-17T02:29:11;10.10;99.90
2571;DHT22;1295;51.130;6.732;2024-03-17T02:31:36;10.10;99.90
2571;DHT22;1295;51.130;6.732;2024-03-17T02:34:02;10.10;99.90
2571;DHT22;1295;51.130;6.732;2024-03-17T02:36:28;10.10;99.90
2571;DHT22;1295;51.130;6.732;2024-03-17T02:38:53;10.10;99.90
2571;DHT22;1295;51.130;6.732;2024-03-17T02:41:25;10.10;99.90
2571;DHT22;1295;51.130;6.732;2024-03-17T02:43:51;10.10;99.90
2571;DHT22;1295;51.130;6.732;2024-03-17T02:46:17;10.10;99.90
2571;DHT22;1295;51.130;6.732;2024-03-17T02:48:42;10.10;99.90
2571;DHT22;1295;51.130;6.732;2024-03-17T02:51:10;10.10;99.90
2571;DHT22;1295;51.130;6.732;2024-03-17T02:53:35;10.00;99.90
2571;DHT22;1295;51.130;6.732;2024-03-17T02:56:01;10.00;99.90
2571;DHT22;1295;51.130;6.732;2024-03-17T02:58:28;10.00;99.90
2571;DHT22;1295;51.130;6.732;2024-03-17T03:00:53;10.00;99.90
2571;DHT22;1295;51.130;6.732;2024-03-17T03:03:19;10.00;99.90
2571;DHT22;1295;51.130;6.732;2024-03-17T03:05:50;10.00;99.90
2571;DHT22;1295;51.130;6.732;2024-03-17T03:08:21;10.00;99.90
2571;DHT22;1295;51.130;6.732;2024-03-17T03:10:47;10.00;99.90
2571;DHT22;1295;51.130;6.732;2024-03-17T03:13:13;10.00;99.90
2571;DHT22;1295;51.130;6.732;2024-03-17T03:15:38;10.00;99.90
2571;DHT22;1295;51.130;6.732;2024-03-17T03:18:05;10.00;99.90
2571;DHT22;1295;51.130;6.732;2024-03-17T03:20:31;10.00;99.90
2571;DHT22;1295;51.130;6.732;2024-03-17T03:22:57;10.00;99.90
2571;DHT22;1295;51.130;6.732;2024-03-17T03:25:23;10.00;99.90
2571;DHT22;1295;51.130;6.732;2024-03-17T03:27:49;10.00;99.90
2571;DHT22;1295;51.130;6.732;2024-03-17T03:30:20;10.00;99.90
2571;DHT22;1295;51.130;6.732;2024-03-17T03:32:51;9.90;99.90
2571;DHT22;1295;51.130;6.732;2024-03-17T03:35:16;9.80;99.90
2571;DHT22;1295;51.130;6.732;2024-03-17T03:37:42;9.90;99.90
2571;DHT22;1295;51.130;6.732;2024-03-17T03:40:08;9.90;99.90
2571;DHT22;1295;51.130;6.732;2024-03-17T03:42:35;9.90;99.90
2571;DHT22;1295;51.130;6.732;2024-03-17T03:45:01;9.90;99.90
2571;DHT22;1295;51.130;6.732;2024-03-17T03:47:26;9.90;99.90
2571;DHT22;1295;51.130;6.732;2024-03-17T03:49:52;9.90;99.90
2571;DHT22;1295;51.130;6.732;2024-03-17T03:52:19;9.90;99.90
2571;DHT22;1295;51.130;6.732;2024-03-17T03:54:44;9.80;99.90
2571;DHT22;1295;51.130;6.732;2024-03-17T03:57:10;9.90;99.90
2571;DHT22;1295;51.130;6.732;2024-03-17T03:59:36;9.80;99.90
2571;DHT22;1295;51.130;6.732;2024-03-17T04:02:01;9.80;99.90
2571;DHT22;1295;51.130;6.732;2024-03-17T04:04:28;9.80;99.90
2571;DHT22;1295;51.130;6.732;2024-03-17T04:06:53;9.80;99.90
2571;DHT22;1295;51.130;6.732;2024-03-17T04:09:19;9.90;99.90
2571;DHT22;1295;51.130;6.732;2024-03-17T04:11:45;9.90;99.90
2571;DHT22;1295;51.130;6.732;2024-03-17T04:14:10;9.90;99.90
2571;DHT22;1295;51.130;6.732;2024-03-17T04:16:36;9.80;99.90
2571;DHT22;1295;51.130;6.732;2024-03-17T04:19:02;9.80;99.90
2571;DHT22;1295;51.130;6.732;2024-03-17T04:21:27;9.80;99.90
2571;DHT22;1295;51.130;6.732;2024-03-17T04:23:53;9.80;99.90
2571;DHT22;1295;51.130;6.732;2024-03-17T04:26:19;9.80;99.90
2571;DHT22;1295;51.130;6.732;2024-03-17T04:28:44;9.80;99.90
2571;DHT22;1295;51.130;6.732;2024-03-17T04:31:10;9.80;99.90
2571;DHT22;1295;51.130;6.732;2024-03-17T04:33:36;9.70;99.90
2571;DHT22;1295;51.130;6.732;2024-03-17T04:36:01;9.80;99.90
2571;DHT22;1295;51.130;6.732;2024-03-17T04:38:28;9.80;99.90
2571;DHT22;1295;51.130;6.732;2024-03-17T04:40:53;9.80;99.90
2571;DHT22;1295;51.130;6.732;2024-03-17T04:43:36;9.80;99.90
2571;DHT22;1295;51.130;6.732;2024-03-17T04:46:02;9.80;99.90
2571;DHT22;1295;51.130;6.732;2024-03-17T04:48:27;9.80;99.90
2571;DHT22;1295;51.130;6.732;2024-03-17T04:50:53;9.30;99.90
2571;DHT22;1295;51.130;6.732;2024-03-17T04:53:18;9.60;99.90
2571;DHT22;1295;51.130;6.732;2024-03-17T04:55:44;9.70;99.90
2571;DHT22;1295;51.130;6.732;2024-03-17T04:58:10;9.60;99.90
2571;DHT22;1295;51.130;6.732;2024-03-17T05:00:35;9.50;99.90
2571;DHT22;1295;51.130;6.732;2024-03-17T05:03:01;9.50;99.90
2571;DHT22;1295;51.130;6.732;2024-03-17T05:05:27;9.70;99.90
2571;DHT22;1295;51.130;6.732;2024-03-17T05:07:52;9.70;99.90
2571;DHT22;1295;51.130;6.732;2024-03-17T05:10:18;9.60;99.90
2571;DHT22;1295;51.130;6.732;2024-03-17T05:12:44;9.50;99.90
2571;DHT22;1295;51.130;6.732;2024-03-17T05:15:09;9.50;99.90
2571;DHT22;1295;51.130;6.732;2024-03-17T05:17:35;9.60;99.90
2571;DHT22;1295;51.130;6.732;2024-03-17T05:20:01;9.60;99.90
2571;DHT22;1295;51.130;6.732;2024-03-17T05:22:27;9.60;99.90
2571;DHT22;1295;51.130;6.732;2024-03-17T05:24:52;9.60;99.90
2571;DHT22;1295;51.130;6.732;2024-03-17T05:27:18;9.60;99.90
2571;DHT22;1295;51.130;6.732;2024-03-17T05:29:44;9.50;99.90
2571;DHT22;1295;51.130;6.732;2024-03-17T05:32:09;9.50;99.90
2571;DHT22;1295;51.130;6.732;2024-03-17T05:34:35;9.60;99.90
2571;DHT22;1295;51.130;6.732;2024-03-17T05:37:01;9.60;99.90
2571;DHT22;1295;51.130;6.732;2024-03-17T05:39:26;9.50;99.90
2571;DHT22;1295;51.130;6.732;2024-03-17T05:41:52;9.60;99.90
2571;DHT22;1295;51.130;6.732;2024-03-17T05:44:18;9.60;99.90
2571;DHT22;1295;51.130;6.732;2024-03-17T05:46:43;9.60;99.90
2571;DHT22;1295;51.130;6.732;2024-03-17T05:49:09;9.60;99.90
2571;DHT22;1295;51.130;6.732;2024-03-17T05:51:34;9.60;99.90
2571;DHT22;1295;51.130;6.732;2024-03-17T05:54:01;9.60;99.90
2571;DHT22;1295;51.130;6.732;2024-03-17T05:56:26;9.60;99.90
2571;DHT22;1295;51.130;6.732;2024-03-17T05:58:52;9.50;99.90
2571;DHT22;1295;51.130;6.732;2024-03-17T06:01:18;9.50;99.90
2571;DHT22;1295;51.130;6.732;2024-03-17T06:03:43;9.50;99.90
2571;DHT22;1295;51.130;6.732;2024-03-17T06:06:09;9.60;99.90
2571;DHT22;1295;51.130;6.732;2024-03-17T06:08:36;9.50;99.90
2571;DHT22;1295;51.130;6.732;2024-03-17T06:11:02;9.50;99.90
2571;DHT22;1295;51.130;6.732;2024-03-17T06:13:28;9.50;99.90
2571;DHT22;1295;51.130;6.732;2024-03-17T06:15:54;9.40;99.90
2571;DHT22;1295;51.130;6.732;2024-03-17T06:18:19;9.50;99.90
2571;DHT22;1295;51.130;6.732;2024-03-17T06:20:45;9.40;99.90
2571;DHT22;1295;51.130;6.732;2024-03-17T06:23:11;9.50;99.90
2571;DHT22;1295;51.130;6.732;2024-03-17T06:25:41;9.40;99.90
2571;DHT22;1295;51.130;6.732;2024-03-17T06:28:07;9.40;99.90
2571;DHT22;1295;51.130;6.732;2024-03-17T06:30:32;9.40;99.90
2571;DHT22;1295;51.130;6.732;2024-03-17T06:32:58;9.50;99.90
2571;DHT22;1295;51.130;6.732;2024-03-17T06:35:24;9.50;99.90
2571;DHT22;1295;51.130;6.732;2024-03-17T06:37:50;9.40;99.90
2571;DHT22;1295;51.130;6.732;2024-03-17T06:40:15;9.40;99.90
2571;DHT22;1295;51.130;6.732;2024-03-17T06:42:41;9.40;99.90
2571;DHT22;1295;51.130;6.732;2024-03-17T06:45:07;9.50;99.90
2571;DHT22;1295;51.130;6.732;2024-03-17T06:47:35;9.40;99.90
2571;DHT22;1295;51.130;6.732;2024-03-17T06:50:00;9.40;99.90
2571;DHT22;1295;51.130;6.732;2024-03-17T06:52:25;9.40;99.90
2571;DHT22;1295;51.130;6.732;2024-03-17T06:54:52;9.20;99.90
2571;DHT22;1295;51.130;6.732;2024-03-17T06:57:17;9.20;99.90
2571;DHT22;1295;51.130;6.732;2024-03-17T06:59:43;9.30;99.90
2571;DHT22;1295;51.130;6.732;2024-03-17T07:02:09;9.40;99.90
2571;DHT22;1295;51.130;6.732;2024-03-17T07:04:35;9.30;99.90
2571;DHT22;1295;51.130;6.732;2024-03-17T07:07:00;9.30;99.90
2571;DHT22;1295;51.130;6.732;2024-03-17T07:09:27;9.30;99.90
2571;DHT22;1295;51.130;6.732;2024-03-17T07:11:52;9.30;99.90
2571;DHT22;1295;51.130;6.732;2024-03-17T07:14:18;9.30;99.90
2571;DHT22;1295;51.130;6.732;2024-03-17T07:16:43;9.20;99.90
2571;DHT22;1295;51.130;6.732;2024-03-17T07:19:09;9.10;99.90
2571;DHT22;1295;51.130;6.732;2024-03-17T07:21:35;9.10;99.90
2571;DHT22;1295;51.130;6.732;2024-03-17T07:24:00;9.30;99.90
2571;DHT22;1295;51.130;6.732;2024-03-17T07:26:26;9.30;99.90
2571;DHT22;1295;51.130;6.732;2024-03-17T07:28:52;9.10;99.90
2571;DHT22;1295;51.130;6.732;2024-03-17T07:31:17;9.10;99.90
2571;DHT22;1295;51.130;6.732;2024-03-17T07:33:43;9.10;99.90
2571;DHT22;1295;51.130;6.732;2024-03-17T07:36:09;9.30;99.90
2571;DHT22;1295;51.130;6.732;2024-03-17T07:38:34;9.20;99.90
2571;DHT22;1295;51.130;6.732;2024-03-17T07:41:03;9.40;99.90
2571;DHT22;1295;51.130;6.732;2024-03-17T07:43:28;9.40;99.90
2571;DHT22;1295;51.130;6.732;2024-03-17T07:46:00;9.40;99.90
2571;DHT22;1295;51.130;6.732;2024-03-17T07:48:26;9.50;99.90
2571;DHT22;1295;51.130;6.732;2024-03-17T07:50:53;9.50;99.90
2571;DHT22;1295;51.130;6.732;2024-03-17T07:53:19;9.40;99.90
2571;DHT22;1295;51.130;6.732;2024-03-17T07:55:45;9.40;99.90
2571;DHT22;1295;51.130;6.732;2024-03-17T07:58:10;9.40;99.90
2571;DHT22;1295;51.130;6.732;2024-03-17T08:00:37;9.50;99.90
2571;DHT22;1295;51.130;6.732;2024-03-17T08:03:02;9.50;99.90
2571;DHT22;1295;51.130;6.732;2024-03-17T08:05:28;9.60;99.90
2571;DHT22;1295;51.130;6.732;2024-03-17T08:07:54;9.70;99.90
2571;DHT22;1295;51.130;6.732;2024-03-17T08:10:20;9.80;99.90
2571;DHT22;1295;51.130;6.732;2024-03-17T08:12:45;9.90;99.90
2571;DHT22;1295;51.130;6.732;2024-03-17T08:15:11;9.90;99.90
2571;DHT22;1295;51.130;6.732;2024-03-17T08:17:37;9.80;99.90
2571;DHT22;1295;51.130;6.732;2024-03-17T08:20:03;9.80;99.90
2571;DHT22;1295;51.130;6.732;2024-03-17T08:22:29;9.70;99.90
2571;DHT22;1295;51.130;6.732;2024-03-17T08:24:55;9.70;99.90
2571;DHT22;1295;51.130;6.732;2024-03-17T08:27:21;9.70;99.90
2571;DHT22;1295;51.130;6.732;2024-03-17T08:29:47;9.90;99.90
2571;DHT22;1295;51.130;6.732;2024-03-17T08:32:13;9.90;99.90
2571;DHT22;1295;51.130;6.732;2024-03-17T08:34:38;10.10;99.90
2571;DHT22;1295;51.130;6.732;2024-03-17T08:37:04;10.20;99.90
2571;DHT22;1295;51.130;6.732;2024-03-17T08:39:30;10.10;99.90
2571;DHT22;1295;51.130;6.732;2024-03-17T08:41:55;10.20;99.90
2571;DHT22;1295;51.130;6.732;2024-03-17T08:44:21;10.30;99.90
2571;DHT22;1295;51.130;6.732;2024-03-17T08:46:46;10.30;99.90
2571;DHT22;1295;51.130;6.732;2024-03-17T08:49:12;10.20;99.90
2571;DHT22;1295;51.130;6.732;2024-03-17T08:51:38;10.10;99.90
2571;DHT22;1295;51.130;6.732;2024-03-17T08:54:03;10.00;99.90
2571;DHT22;1295;51.130;6.732;2024-03-17T08:56:29;10.10;99.90
2571;DHT22;1295;51.130;6.732;2024-03-17T08:58:55;9.90;99.90
2571;DHT22;1295;51.130;6.732;2024-03-17T09:01:20;9.90;99.90
2571;DHT22;1295;51.130;6.732;2024-03-17T09:03:54;9.90;99.90
2571;DHT22;1295;51.130;6.732;2024-03-17T09:06:25;9.90;99.90
2571;DHT22;1295;51.130;6.732;2024-03-17T09:08:51;9.90;99.90
2571;DHT22;1295;51.130;6.732;2024-03-17T09:11:16;9.90;99.90
2571;DHT22;1295;51.130;6.732;2024-03-17T09:13:43;9.90;99.90
2571;DHT22;1295;51.130;6.732;2024-03-17T09:16:08;9.90;99.90
2571;DHT22;1295;51.130;6.732;2024-03-17T09:18:35;10.00;99.90
2571;DHT22;1295;51.130;6.732;2024-03-17T09:21:02;10.00;99.90
2571;DHT22;1295;51.130;6.732;2024-03-17T09:23:27;10.00;99.90
2571;DHT22;1295;51.130;6.732;2024-03-17T09:25:54;9.90;99.90
2571;DHT22;1295;51.130;6.732;2024-03-17T09:28:19;9.90;99.90
2571;DHT22;1295;51.130;6.732;2024-03-17T09:30:47;10.00;99.90
2571;DHT22;1295;51.130;6.732;2024-03-17T09:33:13;10.00;99.90
2571;DHT22;1295;51.130;6.732;2024-03-17T09:35:40;10.10;99.90
2571;DHT22;1295;51.130;6.732;2024-03-17T09:38:05;10.10;99.90
2571;DHT22;1295;51.130;6.732;2024-03-17T09:40:31;10.00;99.90
2571;DHT22;1295;51.130;6.732;2024-03-17T09:42:56;10.10;99.90
2571;DHT22;1295;51.130;6.732;2024-03-17T09:45:23;10.30;99.90
2571;DHT22;1295;51.130;6.732;2024-03-17T09:47:48;10.30;99.90
2571;DHT22;1295;51.130;6.732;2024-03-17T09:50:13;10.30;99.90
2571;DHT22;1295;51.130;6.732;2024-03-17T09:52:40;10.20;99.90
2571;DHT22;1295;51.130;6.732;2024-03-17T09:55:09;10.10;99.90
2571;DHT22;1295;51.130;6.732;2024-03-17T09:57:36;10.20;99.90
2571;DHT22;1295;51.130;6.732;2024-03-17T10:00:01;10.30;99.90
2571;DHT22;1295;51.130;6.732;2024-03-17T10:02:26;10.50;99.90
2571;DHT22;1295;51.130;6.732;2024-03-17T10:04:53;10.60;99.90
2571;DHT22;1295;51.130;6.732;2024-03-17T10:07:18;10.50;99.90
2571;DHT22;1295;51.130;6.732;2024-03-17T10:09:44;10.30;99.90
2571;DHT22;1295;51.130;6.732;2024-03-17T10:14:57;10.10;99.90
2571;DHT22;1295;51.130;6.732;2024-03-17T10:17:13;10.00;99.90
2571;DHT22;1295;51.130;6.732;2024-03-17T10:19:39;10.00;99.90
2571;DHT22;1295;51.130;6.732;2024-03-17T10:22:05;10.10;99.90
2571;DHT22;1295;51.130;6.732;2024-03-17T10:24:30;10.10;99.90
2571;DHT22;1295;51.130;6.732;2024-03-17T10:26:56;10.00;99.90
2571;DHT22;1295;51.130;6.732;2024-03-17T10:29:29;10.10;99.90
2571;DHT22;1295;51.130;6.732;2024-03-17T10:31:54;10.20;99.90
2571;DHT22;1295;51.130;6.732;2024-03-17T10:34:20;10.20;99.90
2571;DHT22;1295;51.130;6.732;2024-03-17T10:36:46;10.30;99.90
2571;DHT22;1295;51.130;6.732;2024-03-17T10:39:20;10.30;99.90
2571;DHT22;1295;51.130;6.732;2024-03-17T10:41:41;10.40;99.90
2571;DHT22;1295;51.130;6.732;2024-03-17T10:44:08;10.50;99.90
2571;DHT22;1295;51.130;6.732;2024-03-17T10:46:34;10.50;99.90
2571;DHT22;1295;51.130;6.732;2024-03-17T10:48:59;10.90;99.90
2571;DHT22;1295;51.130;6.732;2024-03-17T10:51:25;10.90;99.90
2571;DHT22;1295;51.130;6.732;2024-03-17T10:53:50;11.00;99.90
2571;DHT22;1295;51.130;6.732;2024-03-17T10:56:16;10.80;99.90
2571;DHT22;1295;51.130;6.732;2024-03-17T10:58:48;11.00;99.90
2571;DHT22;1295;51.130;6.732;2024-03-17T11:01:13;11.80;99.90
2571;DHT22;1295;51.130;6.732;2024-03-17T11:03:39;11.80;99.90
2571;DHT22;1295;51.130;6.732;2024-03-17T11:06:04;11.30;99.90
2571;DHT22;1295;51.130;6.732;2024-03-17T11:08:31;11.10;99.90
2571;DHT22;1295;51.130;6.732;2024-03-17T11:10:57;11.20;99.90
2571;DHT22;1295;51.130;6.732;2024-03-17T11:13:23;11.80;99.90
2571;DHT22;1295;51.130;6.732;2024-03-17T11:15:49;11.80;99.90
2571;DHT22;1295;51.130;6.732;2024-03-17T11:21:02;11.30;99.90
2571;DHT22;1295;51.130;6.732;2024-03-17T11:23:29;12.20;99.90
2571;DHT22;1295;51.130;6.732;2024-03-17T11:25:55;11.60;99.90
2571;DHT22;1295;51.130;6.732;2024-03-17T11:30:59;11.50;99.90
2571;DHT22;1295;51.130;6.732;2024-03-17T11:33:48;11.80;99.90
2571;DHT22;1295;51.130;6.732;2024-03-17T11:36:36;11.80;99.90
2571;DHT22;1295;51.130;6.732;2024-03-17T11:39:03;11.10;99.90
2571;DHT22;1295;51.130;6.732;2024-03-17T11:41:37;11.10;99.90
2571;DHT22;1295;51.130;6.732;2024-03-17T11:46:55;12.50;99.90
2571;DHT22;1295;51.130;6.732;2024-03-17T11:49:26;11.70;99.90
2571;DHT22;1295;51.130;6.732;2024-03-17T11:51:52;11.70;99.90
2571;DHT22;1295;51.130;6.732;2024-03-17T11:54:18;11.30;99.90
2571;DHT22;1295;51.130;6.732;2024-03-17T11:56:46;11.30;99.90
2571;DHT22;1295;51.130;6.732;2024-03-17T11:59:12;11.90;99.90
2571;DHT22;1295;51.130;6.732;2024-03-17T12:01:37;11.90;99.90
2571;DHT22;1295;51.130;6.732;2024-03-17T12:04:04;11.60;99.90
2571;DHT22;1295;51.130;6.732;2024-03-17T12:06:30;12.20;99.90
2571;DHT22;1295;51.130;6.732;2024-03-17T12:09:07;12.20;99.90
2571;DHT22;1295;51.130;6.732;2024-03-17T12:11:21;11.70;99.90
2571;DHT22;1295;51.130;6.732;2024-03-17T12:13:48;11.60;99.90
2571;DHT22;1295;51.130;6.732;2024-03-17T12:16:13;11.60;99.90
2571;DHT22;1295;51.130;6.732;2024-03-17T12:18:39;11.50;99.90
2571;DHT22;1295;51.130;6.732;2024-03-17T12:21:11;11.60;99.90
2571;DHT22;1295;51.130;6.732;2024-03-17T12:23:31;11.40;99.90
2571;DHT22;1295;51.130;6.732;2024-03-17T12:25:57;11.80;99.90
2571;DHT22;1295;51.130;6.732;2024-03-17T12:28:23;12.00;99.90
2571;DHT22;1295;51.130;6.732;2024-03-17T12:30:48;12.00;99.90
2571;DHT22;1295;51.130;6.732;2024-03-17T12:33:14;12.40;99.90
2571;DHT22;1295;51.130;6.732;2024-03-17T12:35:40;12.30;99.90
2571;DHT22;1295;51.130;6.732;2024-03-17T12:38:23;12.00;99.90
2571;DHT22;1295;51.130;6.732;2024-03-17T12:40:49;12.20;99.90
2571;DHT22;1295;51.130;6.732;2024-03-17T12:43:15;12.20;99.90
2571;DHT22;1295;51.130;6.732;2024-03-17T12:45:40;11.80;99.90
2571;DHT22;1295;51.130;6.732;2024-03-17T12:48:12;12.00;99.90
2571;DHT22;1295;51.130;6.732;2024-03-17T12:50:32;11.70;99.90
2571;DHT22;1295;51.130;6.732;2024-03-17T12:52:58;12.00;99.90
2571;DHT22;1295;51.130;6.732;2024-03-17T12:55:23;12.20;99.90
2571;DHT22;1295;51.130;6.732;2024-03-17T12:58:09;12.00;99.90
2571;DHT22;1295;51.130;6.732;2024-03-17T13:00:41;11.70;99.90
2571;DHT22;1295;51.130;6.732;2024-03-17T13:03:07;12.80;99.90
2571;DHT22;1295;51.130;6.732;2024-03-17T13:05:33;12.70;99.90
2571;DHT22;1295;51.130;6.732;2024-03-17T13:07:59;11.90;99.90
2571;DHT22;1295;51.130;6.732;2024-03-17T13:10:25;11.80;99.90
2571;DHT22;1295;51.130;6.732;2024-03-17T13:13:00;11.90;99.90
2571;DHT22;1295;51.130;6.732;2024-03-17T13:15:25;11.90;99.90
2571;DHT22;1295;51.130;6.732;2024-03-17T13:17:50;11.80;99.90
2571;DHT22;1295;51.130;6.732;2024-03-17T13:20:16;12.10;99.90
2571;DHT22;1295;51.130;6.732;2024-03-17T13:22:43;11.80;99.90
2571;DHT22;1295;51.130;6.732;2024-03-17T13:25:09;11.90;99.90
2571;DHT22;1295;51.130;6.732;2024-03-17T13:27:34;12.50;99.90
2571;DHT22;1295;51.130;6.732;2024-03-17T13:29:59;12.40;99.90
2571;DHT22;1295;51.130;6.732;2024-03-17T13:32:25;12.00;99.90
2571;DHT22;1295;51.130;6.732;2024-03-17T13:34:51;11.60;99.90
2571;DHT22;1295;51.130;6.732;2024-03-17T13:37:22;12.30;99.90
2571;DHT22;1295;51.130;6.732;2024-03-17T13:39:53;12.40;99.90
2571;DHT22;1295;51.130;6.732;2024-03-17T13:42:19;12.50;99.90
2571;DHT22;1295;51.130;6.732;2024-03-17T13:44:44;12.50;99.90
2571;DHT22;1295;51.130;6.732;2024-03-17T13:47:10;12.70;99.90
2571;DHT22;1295;51.130;6.732;2024-03-17T13:49:36;12.20;99.90
2571;DHT22;1295;51.130;6.732;2024-03-17T13:52:01;11.90;99.90
2571;DHT22;1295;51.130;6.732;2024-03-17T13:54:27;11.80;99.90
2571;DHT22;1295;51.130;6.732;2024-03-17T13:56:53;11.80;99.90
2571;DHT22;1295;51.130;6.732;2024-03-17T13:59:18;11.80;99.90
2571;DHT22;1295;51.130;6.732;2024-03-17T14:01:44;11.60;99.90
2571;DHT22;1295;51.130;6.732;2024-03-17T14:04:12;11.80;99.90
2571;DHT22;1295;51.130;6.732;2024-03-17T14:06:36;12.60;99.90
2571;DHT22;1295;51.130;6.732;2024-03-17T14:09:02;12.60;99.90
2571;DHT22;1295;51.130;6.732;2024-03-17T14:11:28;12.50;99.90
2571;DHT22;1295;51.130;6.732;2024-03-17T14:13:54;12.40;99.90
2571;DHT22;1295;51.130;6.732;2024-03-17T14:16:19;12.10;99.90
2571;DHT22;1295;51.130;6.732;2024-03-17T14:18:45;12.00;99.90
2571;DHT22;1295;51.130;6.732;2024-03-17T14:21:10;11.80;99.90
2571;DHT22;1295;51.130;6.732;2024-03-17T14:23:36;11.80;99.90
2571;DHT22;1295;51.130;6.732;2024-03-17T14:26:03;11.70;99.90
2571;DHT22;1295;51.130;6.732;2024-03-17T14:28:28;11.70;99.90
2571;DHT22;1295;51.130;6.732;2024-03-17T14:30:54;11.80;99.90
2571;DHT22;1295;51.130;6.732;2024-03-17T14:33:20;11.90;99.90
2571;DHT22;1295;51.130;6.732;2024-03-17T14:35:45;12.20;99.90
2571;DHT22;1295;51.130;6.732;2024-03-17T14:38:11;12.40;99.90
2571;DHT22;1295;51.130;6.732;2024-03-17T14:40:37;12.30;99.90
2571;DHT22;1295;51.130;6.732;2024-03-17T14:43:02;12.60;99.90
2571;DHT22;1295;51.130;6.732;2024-03-17T14:45:29;12.10;99.90
2571;DHT22;1295;51.130;6.732;2024-03-17T14:47:54;12.10;99.90
2571;DHT22;1295;51.130;6.732;2024-03-17T14:50:20;12.30;99.90
2571;DHT22;1295;51.130;6.732;2024-03-17T14:52:52;12.10;99.90
2571;DHT22;1295;51.130;6.732;2024-03-17T14:55:27;12.10;99.90
2571;DHT22;1295;51.130;6.732;2024-03-17T14:57:54;12.50;99.90
2571;DHT22;1295;51.130;6.732;2024-03-17T15:00:19;12.50;99.90
2571;DHT22;1295;51.130;6.732;2024-03-17T15:02:45;12.10;99.90
2571;DHT22;1295;51.130;6.732;2024-03-17T15:05:11;12.50;99.90
2571;DHT22;1295;51.130;6.732;2024-03-17T15:07:37;12.60;99.90
2571;DHT22;1295;51.130;6.732;2024-03-17T15:10:04;12.60;99.90
2571;DHT22;1295;51.130;6.732;2024-03-17T15:12:29;12.50;99.90
2571;DHT22;1295;51.130;6.732;2024-03-17T15:14:55;12.60;99.90
2571;DHT22;1295;51.130;6.732;2024-03-17T15:17:21;12.60;99.90
2571;DHT22;1295;51.130;6.732;2024-03-17T15:19:47;12.50;99.90
2571;DHT22;1295;51.130;6.732;2024-03-17T15:22:17;12.60;99.90
2571;DHT22;1295;51.130;6.732;2024-03-17T15:24:43;12.40;99.90
2571;DHT22;1295;51.130;6.732;2024-03-17T15:27:09;12.50;99.90
2571;DHT22;1295;51.130;6.732;2024-03-17T15:29:35;12.30;99.90
2571;DHT22;1295;51.130;6.732;2024-03-17T15:32:01;12.40;99.90
2571;DHT22;1295;51.130;6.732;2024-03-17T15:34:26;12.60;99.90
2571;DHT22;1295;51.130;6.732;2024-03-17T15:36:52;12.60;99.90
2571;DHT22;1295;51.130;6.732;2024-03-17T15:39:18;13.10;99.90
2571;DHT22;1295;51.130;6.732;2024-03-17T15:41:44;13.10;99.90
2571;DHT22;1295;51.130;6.732;2024-03-17T15:44:10;12.90;99.90
2571;DHT22;1295;51.130;6.732;2024-03-17T15:46:35;12.70;99.90
2571;DHT22;1295;51.130;6.732;2024-03-17T15:49:02;13.20;99.90
2571;DHT22;1295;51.130;6.732;2024-03-17T15:51:27;13.20;99.90
2571;DHT22;1295;51.130;6.732;2024-03-17T15:53:53;13.00;99.90
2571;DHT22;1295;51.130;6.732;2024-03-17T15:56:19;13.00;99.90
2571;DHT22;1295;51.130;6.732;2024-03-17T15:58:44;12.50;99.90
2571;DHT22;1295;51.130;6.732;2024-03-17T16:01:11;13.00;99.90
2571;DHT22;1295;51.130;6.732;2024-03-17T16:03:37;13.00;99.90
2571;DHT22;1295;51.130;6.732;2024-03-17T16:06:05;13.10;99.90
2571;DHT22;1295;51.130;6.732;2024-03-17T16:08:30;13.10;99.90
2571;DHT22;1295;51.130;6.732;2024-03-17T16:10:57;12.40;99.90